Time;durP1;ratioP1;P1;durP2;ratioP2;P2;SDS_P1;SDS_P2;PMS_P1;PMS_P2;Temp;Humidity;BMP_temperature;BMP_pressure;BME280_temperature;BME280_humidity;BME280_pressure;Samples;Min_cycle;Max_cycle;Signal;HPM_P1;HPM_P2
2021/12/18 00:00:22;;;;;;;8.93;6.20;;;;;;;6.89;65.25;94959.03;5111444;28;20683;-75
2021/12/18 00:02:49;;;;;;;10.63;6.93;;;;;;;6.79;65.15;94941.09;5111727;28;20212;-75
2021/12/18 00:05:16;;;;;;;9.40;6.83;;;;;;;6.88;65.17;94959.97;5111658;28;20193;-76
2021/12/18 00:07:43;;;;;;;10.50;6.73;;;;;;;6.88;65.29;94954.88;5093626;28;20225;-76
2021/12/18 00:10:10;;;;;;;9.00;6.50;;;;;;;6.53;65.28;94898.94;5093388;28;20200;-74
2021/12/18 00:12:39;;;;;;;8.07;7.20;;;;;;;6.86;65.19;94949.09;5111456;28;20189;-75
2021/12/18 00:15:07;;;;;;;9.70;6.40;;;;;;;6.85;65.31;94956.81;5111337;28;20220;-75
2021/12/18 00:17:36;;;;;;;10.17;7.10;;;;;;;6.64;65.19;94915.94;5111210;28;20204;-75
2021/12/18 00:20:03;;;;;;;8.67;7.03;;;;;;;6.84;65.30;94952.66;5111311;28;20213;-75
2021/12/18 00:22:30;;;;;;;9.87;7.37;;;;;;;6.83;65.34;94951.06;5111112;28;20196;-75
2021/12/18 00:24:57;;;;;;;9.10;6.40;;;;;;;6.84;65.33;94952.66;5111836;28;20194;-74
2021/12/18 00:27:24;;;;;;;10.17;7.80;;;;;;;6.83;65.08;94954.41;5110986;28;20188;-74
2021/12/18 00:29:51;;;;;;;10.83;7.40;;;;;;;6.83;65.33;94956.13;5112032;28;20188;-77
2021/12/18 00:32:18;;;;;;;10.00;7.33;;;;;;;6.81;65.26;94951.16;5111088;28;20189;-74
2021/12/18 00:34:47;;;;;;;8.83;6.60;;;;;;;6.74;65.26;94948.25;5111123;28;20192;-75
2021/12/18 00:37:14;;;;;;;10.20;7.27;;;;;;;6.81;65.18;94953.69;5110562;28;20200;-75
2021/12/18 00:39:49;;;;;;;8.43;6.73;;;;;;;6.82;65.22;94957.03;5109081;28;20228;-76
2021/12/18 00:42:25;;;;;;;9.97;6.77;;;;;;;6.81;65.15;94952.88;5111054;28;20190;-74
2021/12/18 00:44:52;;;;;;;9.20;7.17;;;;;;;6.78;64.99;94952.19;5111137;28;20197;-74
2021/12/18 00:47:19;;;;;;;11.93;7.60;;;;;;;6.76;64.92;94955.75;5110645;28;20594;-74
2021/12/18 00:49:47;;;;;;;9.90;7.20;;;;;;;6.69;65.08;94940.13;5110537;28;20193;-74
2021/12/18 00:52:14;;;;;;;10.43;7.03;;;;;;;6.70;65.20;94949.38;5111102;28;20250;-73
2021/12/18 00:54:41;;;;;;;9.00;7.80;;;;;;;6.67;65.15;94954.66;5111027;28;20197;-74
2021/12/18 00:57:08;;;;;;;10.60;7.90;;;;;;;6.64;65.43;94952.31;5110583;28;20196;-73
2021/12/18 00:59:35;;;;;;;13.37;8.23;;;;;;;6.60;65.04;94956.00;5113008;28;20189;-74
2021/12/18 01:02:02;;;;;;;11.20;7.90;;;;;;;6.57;65.04;94956.22;5107588;28;20190;-73
2021/12/18 01:04:29;;;;;;;10.47;8.23;;;;;;;6.54;65.23;94952.16;5089145;28;20188;-74
2021/12/18 01:06:57;;;;;;;11.10;8.73;;;;;;;6.52;65.16;94958.28;5090553;28;20237;-75
2021/12/18 01:09:38;;;;;;;13.47;9.93;;;;;;;6.44;65.12;94942.75;5090504;28;20602;-74
2021/12/18 01:12:07;;;;;;;14.47;10.87;;;;;;;6.47;65.21;94956.03;5090368;28;20644;-76
2021/12/18 01:14:48;;;;;;;19.87;13.63;;;;;;;6.45;65.07;94957.88;5090437;28;20217;-77
2021/12/18 01:22:48;;;;;;;14.97;10.83;;;;;;;6.41;65.43;94950.59;5090240;28;20192;-79
2021/12/18 01:25:16;;;;;;;15.53;11.57;;;;;;;6.38;65.23;94949.06;5090683;28;20281;-78
2021/12/18 01:27:43;;;;;;;12.27;9.80;;;;;;;6.17;64.93;94925.13;5089720;28;20193;-77
2021/12/18 01:30:13;;;;;;;12.43;9.43;;;;;;;6.25;65.46;94933.03;5088833;28;20224;-78
2021/12/18 01:32:40;;;;;;;10.27;8.77;;;;;;;6.37;65.15;94944.91;5089733;28;20199;-78
2021/12/18 01:35:08;;;;;;;12.70;8.50;;;;;;;6.39;65.04;94958.31;5090947;28;20185;-76
2021/12/18 01:37:35;;;;;;;14.43;9.60;;;;;;;6.40;64.98;94952.31;5090748;28;20193;-80
2021/12/18 01:40:04;;;;;;;9.83;8.50;;;;;;;6.41;65.15;94958.22;5090530;28;20670;-77
2021/12/18 01:45:19;;;;;;;10.53;8.97;;;;;;;6.41;65.20;94958.22;5089440;28;20197;-77
2021/12/18 01:53:18;;;;;;;9.47;7.83;;;;;;;6.39;64.76;94944.78;5089377;28;20343;-76
2021/12/18 01:55:49;;;;;;;9.50;7.63;;;;;;;6.32;64.90;94925.81;5088890;28;20193;-74
2021/12/18 01:58:19;;;;;;;9.83;7.83;;;;;;;6.39;64.78;94934.63;5090542;28;20209;-74
2021/12/18 02:00:46;;;;;;;9.83;8.03;;;;;;;6.49;64.68;94945.78;5090035;28;20221;-78
2021/12/18 02:03:13;;;;;;;8.40;7.60;;;;;;;6.34;64.56;94926.53;5096128;28;20190;-75
2021/12/18 02:05:40;;;;;;;10.03;7.63;;;;;;;6.25;64.85;94910.19;5095893;28;20196;-78
2021/12/18 02:08:08;;;;;;;9.20;7.17;;;;;;;6.50;64.55;94943.13;5093903;28;20665;-78
2021/12/18 02:10:45;;;;;;;12.03;7.47;;;;;;;6.52;64.56;94945.59;5093659;28;20201;-74
2021/12/18 02:13:25;;;;;;;9.03;6.80;;;;;;;6.52;64.45;94946.41;5094167;28;20186;-78
2021/12/18 02:21:26;;;;;;;8.83;6.73;;;;;;;6.51;64.36;94939.66;5094032;28;20216;-76
2021/12/18 02:23:53;;;;;;;8.57;6.60;;;;;;;6.38;64.36;94918.56;5093629;28;20190;-78
2021/12/18 02:26:21;;;;;;;10.37;7.33;;;;;;;6.51;64.44;94946.47;5094020;28;20208;-79
2021/12/18 02:28:49;;;;;;;8.90;7.07;;;;;;;6.52;64.31;94943.03;5093605;28;20268;-79
2021/12/18 02:31:17;;;;;;;8.87;6.60;;;;;;;6.52;64.44;94940.50;5094020;28;20186;-78
2021/12/18 02:33:45;;;;;;;7.83;6.53;;;;;;;6.42;64.41;94927.59;5093729;28;20182;-78
2021/12/18 02:36:21;;;;;;;8.77;6.83;;;;;;;6.51;64.49;94937.13;5093438;28;20269;-75
2021/12/18 02:39:04;;;;;;;9.63;6.27;;;;;;;6.36;64.50;94915.34;5093687;28;20264;-77
2021/12/18 02:41:34;;;;;;;14.10;7.67;;;;;;;6.52;64.54;94943.03;5093445;28;20224;-75
2021/12/18 02:44:03;;;;;;;9.87;7.20;;;;;;;6.52;64.75;94948.94;5093846;28;20190;-74
2021/12/18 02:46:30;;;;;;;8.10;6.83;;;;;;;6.52;64.76;94938.78;5093003;28;20200;-76
2021/12/18 02:48:58;;;;;;;7.90;6.23;;;;;;;6.53;64.76;94944.66;5092911;28;20186;-75
2021/12/18 02:51:26;;;;;;;8.30;6.43;;;;;;;6.53;64.81;94959.91;5092639;28;20247;-77
2021/12/18 02:53:55;;;;;;;9.93;7.50;;;;;;;6.53;64.78;94958.19;5093449;28;20193;-75
2021/12/18 02:56:24;;;;;;;9.57;7.03;;;;;;;6.54;64.73;94964.88;5092818;28;20196;-74
2021/12/18 02:58:53;;;;;;;11.80;7.00;;;;;;;6.56;64.86;94958.88;5093073;28;20247;-77
2021/12/18 03:01:23;;;;;;;10.47;7.17;;;;;;;6.54;64.67;94951.34;5092676;28;20228;-73
2021/12/18 03:03:52;;;;;;;9.10;7.47;;;;;;;6.41;64.89;94930.25;5092817;28;20251;-76
2021/12/18 03:06:27;;;;;;;9.93;7.23;;;;;;;6.58;64.97;94968.00;5092935;28;20186;-75
2021/12/18 03:09:14;;;;;;;9.57;7.80;;;;;;;6.33;64.78;94912.22;5092952;28;20193;-74
2021/12/18 03:23:09;;;;;;;9.80;6.43;;;;;;;6.60;64.78;94973.78;5092385;28;20614;-73
2021/12/18 03:25:38;;;;;;;9.03;6.53;;;;;;;6.60;65.02;94966.16;5092508;28;20217;-74
2021/12/18 03:28:07;;;;;;;10.07;7.67;;;;;;;6.58;64.99;94967.22;5092347;28;20190;-76
2021/12/18 03:30:36;;;;;;;11.47;7.50;;;;;;;6.60;65.24;94978.88;5092501;28;20202;-74
2021/12/18 03:33:04;;;;;;;8.37;6.67;;;;;;;6.61;65.49;94970.34;5092119;28;20189;-75
2021/12/18 03:35:32;;;;;;;9.20;6.97;;;;;;;6.61;65.84;94977.97;5092458;28;20197;-74
2021/12/18 03:37:59;;;;;;;9.13;7.57;;;;;;;6.60;66.16;94980.59;5092105;28;20645;-75
2021/12/18 03:40:26;;;;;;;8.80;6.93;;;;;;;6.59;66.64;94984.06;5092533;28;20204;-74
2021/12/18 03:42:55;;;;;;;10.47;7.60;;;;;;;6.58;66.92;94985.81;5092137;28;20198;-74
2021/12/18 03:45:23;;;;;;;9.87;7.70;;;;;;;6.58;67.07;94990.88;5092342;28;20196;-75
2021/12/18 03:47:51;;;;;;;7.90;6.90;;;;;;;6.59;67.08;94989.16;5091851;28;20216;-73
2021/12/18 03:50:18;;;;;;;10.83;7.53;;;;;;;6.56;67.40;94982.53;5092168;28;20664;-74
2021/12/18 03:52:45;;;;;;;9.07;7.27;;;;;;;6.52;67.66;94976.88;5091780;28;20190;-74
2021/12/18 03:55:12;;;;;;;8.97;7.20;;;;;;;6.54;67.77;94984.38;5091812;28;20201;-74
2021/12/18 03:57:39;;;;;;;8.33;7.17;;;;;;;6.53;67.90;94981.03;5092207;28;20198;-74
2021/12/18 04:00:11;;;;;;;8.97;7.83;;;;;;;6.01;67.91;94910.16;5092236;28;20190;-76
2021/12/18 04:02:37;;;;;;;9.23;7.67;;;;;;;6.49;67.97;94992.31;5091955;28;20221;-73
2021/12/18 04:05:05;;;;;;;10.13;8.27;;;;;;;6.48;68.04;94989.91;5093137;28;20197;-75
2021/12/18 04:07:39;;;;;;;12.50;8.77;;;;;;;6.31;68.11;94960.56;5101776;28;20241;-74
2021/12/18 04:10:07;;;;;;;11.30;9.07;;;;;;;6.46;68.03;94979.03;5102557;28;20201;-75
2021/12/18 04:12:34;;;;;;;9.40;7.77;;;;;;;6.44;67.93;94971.50;5103712;28;20181;-74
2021/12/18 04:15:01;;;;;;;11.37;8.77;;;;;;;6.45;68.01;94979.94;5101538;28;20189;-77
2021/12/18 04:17:29;;;;;;;13.30;8.37;;;;;;;6.43;68.13;94984.31;5102556;28;20197;-75
2021/12/18 04:19:56;;;;;;;11.17;8.23;;;;;;;6.43;68.27;94986.84;5104681;28;20194;-75
2021/12/18 04:22:23;;;;;;;10.03;8.00;;;;;;;6.44;68.27;94985.94;5105905;28;20222;-77
2021/12/18 04:24:50;;;;;;;10.37;8.00;;;;;;;6.44;68.32;94985.94;5103498;28;20213;-74
2021/12/18 04:27:17;;;;;;;9.20;7.67;;;;;;;6.43;68.22;94990.22;5103850;28;20683;-74
2021/12/18 04:29:43;;;;;;;10.53;7.67;;;;;;;6.42;68.35;94992.84;5102835;28;20192;-75
2021/12/18 04:32:10;;;;;;;8.80;7.10;;;;;;;6.40;68.33;94992.97;5097657;28;20874;-76
2021/12/18 04:34:38;;;;;;;11.37;7.63;;;;;;;6.38;68.29;94992.25;5091927;28;20201;-75
2021/12/18 04:37:05;;;;;;;9.67;8.40;;;;;;;6.36;68.33;94995.81;5091928;28;20208;-73
2021/12/18 04:39:32;;;;;;;8.93;7.47;;;;;;;6.35;68.23;94997.56;5092001;28;20193;-74
2021/12/18 04:41:59;;;;;;;10.13;7.50;;;;;;;6.34;68.19;95000.19;5090695;28;20224;-74
2021/12/18 04:44:26;;;;;;;11.37;8.50;;;;;;;6.33;67.95;95001.09;5091992;28;20186;-73
2021/12/18 04:46:53;;;;;;;8.27;7.33;;;;;;;6.31;67.92;95011.38;5091964;28;20268;-73
2021/12/18 04:49:20;;;;;;;10.13;8.33;;;;;;;6.25;67.92;94999.88;5092719;28;20699;-75
2021/12/18 04:51:48;;;;;;;11.13;8.37;;;;;;;6.32;67.92;95020.59;5095878;28;20641;-75
2021/12/18 04:54:15;;;;;;;10.17;7.67;;;;;;;6.31;67.98;95013.91;5092634;28;20193;-75
2021/12/18 04:56:42;;;;;;;10.37;7.93;;;;;;;6.32;67.97;95014.72;5090669;28;20279;-74
2021/12/18 04:59:09;;;;;;;11.13;7.50;;;;;;;6.32;67.78;95020.59;5091202;28;20190;-76
2021/12/18 05:01:39;;;;;;;7.93;6.77;;;;;;;6.32;67.76;95024.88;5090128;28;20225;-74
2021/12/18 05:04:08;;;;;;;7.10;6.40;;;;;;;6.32;67.90;95032.50;5090801;28;20209;-74
2021/12/18 05:06:36;;;;;;;10.77;6.87;;;;;;;6.08;67.82;94996.84;5090578;28;20677;-75
2021/12/18 05:09:05;;;;;;;7.30;6.20;;;;;;;6.32;67.79;95037.56;5090563;28;20211;-75
2021/12/18 05:11:32;;;;;;;7.30;6.40;;;;;;;6.23;67.79;95031.38;5090017;28;20193;-74
2021/12/18 05:13:59;;;;;;;9.40;7.43;;;;;;;6.01;67.78;95001.56;5090425;28;20197;-75
2021/12/18 05:16:27;;;;;;;8.33;6.33;;;;;;;6.15;68.01;95031.09;5090280;28;20193;-77
2021/12/18 05:18:54;;;;;;;9.93;6.70;;;;;;;6.13;67.65;95028.66;5090691;28;20213;-76
2021/12/18 05:21:21;;;;;;;11.30;6.97;;;;;;;6.23;67.76;95046.63;5089870;28;20233;-75
2021/12/18 05:23:48;;;;;;;7.67;6.97;;;;;;;6.24;67.60;95061.75;5090583;28;20185;-75
2021/12/18 05:26:17;;;;;;;9.73;6.63;;;;;;;6.24;67.78;95066.03;5090198;28;20276;-76
2021/12/18 05:28:44;;;;;;;8.03;6.07;;;;;;;6.23;67.67;95064.41;5090023;28;20580;-74
2021/12/18 05:31:13;;;;;;;10.13;7.33;;;;;;;5.97;67.64;95030.59;5090383;28;20194;-78
2021/12/18 05:33:40;;;;;;;8.37;6.53;;;;;;;6.22;67.67;95073.75;5090500;28;20189;-77
2021/12/18 05:36:24;;;;;;;7.87;6.10;;;;;;;5.99;67.55;95028.75;5091354;28;20203;-77
2021/12/18 05:38:51;;;;;;;10.67;6.90;;;;;;;6.23;67.54;95077.09;5094393;28;20284;-78
2021/12/18 05:41:19;;;;;;;9.47;6.53;;;;;;;6.23;67.50;95080.44;5094259;28;20217;-77
2021/12/18 05:43:46;;;;;;;9.53;6.37;;;;;;;6.23;67.59;95080.44;5093889;28;20182;-76
2021/12/18 05:46:13;;;;;;;8.80;6.10;;;;;;;6.16;67.54;95070.78;5095836;28;20186;-76
2021/12/18 05:48:40;;;;;;;8.73;6.07;;;;;;;6.24;67.40;95086.34;5094578;28;20200;-77
2021/12/18 05:51:07;;;;;;;7.57;6.30;;;;;;;6.25;67.41;95085.41;5094382;28;20186;-77
2021/12/18 05:53:34;;;;;;;7.57;6.60;;;;;;;5.93;67.30;95036.78;5094436;28;20186;-78
2021/12/18 05:56:01;;;;;;;8.27;6.43;;;;;;;6.16;67.44;95070.78;5094405;28;20186;-75
2021/12/18 05:58:29;;;;;;;8.57;6.77;;;;;;;6.25;67.43;95087.94;5094489;28;20190;-79
2021/12/18 06:00:56;;;;;;;9.07;6.17;;;;;;;6.16;67.48;95079.22;5096069;28;20189;-78
2021/12/18 06:03:22;;;;;;;9.73;7.10;;;;;;;6.25;67.25;95088.75;5094008;28;20653;-77
2021/12/18 06:05:49;;;;;;;11.27;7.40;;;;;;;6.27;67.28;95091.22;5096959;28;20200;-75
2021/12/18 06:08:16;;;;;;;9.53;7.20;;;;;;;6.29;67.27;95102.06;5094095;28;20221;-76
2021/12/18 06:10:43;;;;;;;11.80;7.27;;;;;;;6.29;67.32;95100.34;5093725;28;20687;-77
2021/12/18 06:13:15;;;;;;;9.27;7.23;;;;;;;6.30;67.29;95103.69;5094081;28;20213;-77
2021/12/18 06:15:43;;;;;;;9.63;7.37;;;;;;;6.32;67.49;95103.63;5093740;28;20564;-74
2021/12/18 06:18:10;;;;;;;11.63;7.20;;;;;;;6.34;67.52;95105.13;5094044;28;20186;-77
2021/12/18 06:20:37;;;;;;;9.03;6.93;;;;;;;6.35;67.69;95111.00;5093900;28;20186;-75
2021/12/18 06:23:04;;;;;;;9.97;6.87;;;;;;;6.38;67.36;95118.44;5093661;28;20220;-79
2021/12/18 06:25:31;;;;;;;10.13;7.80;;;;;;;6.39;67.61;95120.06;5093599;28;20194;-76
2021/12/18 06:27:57;;;;;;;7.97;6.30;;;;;;;6.41;67.45;95125.84;5093724;28;20197;-78
2021/12/18 06:30:24;;;;;;;8.10;6.27;;;;;;;6.43;67.75;95124.00;5093488;28;20580;-76
2021/12/18 06:32:52;;;;;;;8.57;7.10;;;;;;;6.45;67.68;95127.28;5093391;28;20182;-75
2021/12/18 06:35:19;;;;;;;10.43;7.10;;;;;;;6.32;67.65;95108.69;5093574;28;20189;-76
2021/12/18 06:37:46;;;;;;;9.90;7.37;;;;;;;6.50;67.70;95137.94;5093431;28;20181;-76
2021/12/18 06:40:13;;;;;;;9.33;7.27;;;;;;;6.52;67.61;95138.69;5093432;28;20201;-76
2021/12/18 06:42:40;;;;;;;14.13;7.17;;;;;;;6.54;67.82;95139.38;5093763;28;20232;-74
2021/12/18 06:45:08;;;;;;;10.13;7.37;;;;;;;6.58;67.56;95147.59;5093372;28;20641;-74
2021/12/18 06:47:35;;;;;;;7.97;6.80;;;;;;;6.58;67.70;95145.88;5092427;28;20186;-76
2021/12/18 06:50:07;;;;;;;10.80;6.97;;;;;;;6.64;67.60;95144.66;5095073;28;20267;-76
2021/12/18 06:52:34;;;;;;;10.07;7.30;;;;;;;6.68;67.50;95148.59;5093076;28;20677;-74
2021/12/18 06:55:01;;;;;;;8.73;7.03;;;;;;;6.64;67.53;95140.38;5093274;28;20201;-77
2021/12/18 06:57:28;;;;;;;8.57;6.93;;;;;;;6.73;67.30;95154.19;5095301;28;20253;-76
2021/12/18 06:59:55;;;;;;;9.70;7.30;;;;;;;6.73;67.45;95146.56;5090967;28;20190;-76
2021/12/18 07:02:22;;;;;;;6.90;5.83;;;;;;;6.78;77.90;95149.63;5090600;28;20623;-79
2021/12/18 07:04:51;;;;;;;4.90;3.37;;;;;;;7.70;100.00;95138.97;5091241;28;20193;-75
2021/12/18 07:07:21;;;;;;;5.10;4.60;;;;;;;9.02;100.00;95150.50;5090777;28;20240;-74
2021/12/18 07:09:48;;;;;;;14.17;9.43;;;;;;;9.83;100.00;95165.53;5090380;28;20201;-74
2021/12/18 07:12:15;;;;;;;11.47;7.73;;;;;;;10.13;100.00;95178.44;5089995;28;20207;-74
2021/12/18 07:14:42;;;;;;;7.30;6.53;;;;;;;10.05;100.00;95157.78;5091321;28;20189;-75
2021/12/18 07:17:08;;;;;;;11.33;6.87;;;;;;;10.13;100.00;95173.31;5090610;28;20213;-77
2021/12/18 07:19:35;;;;;;;10.87;7.27;;;;;;;10.07;100.00;95180.69;5090753;28;20193;-74
2021/12/18 07:22:02;;;;;;;8.87;7.23;;;;;;;9.99;100.00;95174.41;5089834;28;20615;-73
2021/12/18 07:24:31;;;;;;;13.23;7.10;;;;;;;9.91;96.97;95176.78;5090580;28;20182;-75
2021/12/18 07:26:57;;;;;;;11.27;7.37;;;;;;;9.80;93.38;95172.53;5090845;28;20194;-73
2021/12/18 07:29:24;;;;;;;8.43;6.77;;;;;;;9.75;89.81;95179.72;5090394;28;20193;-77
2021/12/18 07:31:51;;;;;;;12.17;7.90;;;;;;;9.61;86.42;95177.44;5091116;28;20196;-77
2021/12/18 07:34:19;;;;;;;10.37;7.37;;;;;;;9.62;83.53;95185.91;5089839;28;20231;-74
2021/12/18 07:36:45;;;;;;;11.33;7.87;;;;;;;9.58;80.60;95182.78;5090056;28;20194;-75
2021/12/18 07:39:12;;;;;;;8.50;7.60;;;;;;;9.57;78.79;95188.00;5090012;28;20201;-75
2021/12/18 07:41:41;;;;;;;10.00;7.93;;;;;;;9.51;76.92;95184.19;5089925;28;21039;-75
2021/12/18 07:44:08;;;;;;;10.57;7.50;;;;;;;9.52;75.56;95190.94;5089422;28;20189;-75
2021/12/18 07:46:36;;;;;;;7.77;6.77;;;;;;;9.31;74.38;95157.66;5091220;28;20197;-75
2021/12/18 07:49:03;;;;;;;9.43;7.63;;;;;;;9.50;73.23;95188.50;5091385;28;20589;-74
2021/12/18 07:51:30;;;;;;;9.93;7.10;;;;;;;9.21;72.00;95147.34;5090681;28;20216;-73
2021/12/18 07:53:57;;;;;;;10.13;7.53;;;;;;;9.54;71.26;95205.22;5092197;28;20578;-74
2021/12/18 07:56:24;;;;;;;10.07;7.07;;;;;;;9.54;70.45;95212.03;5090974;28;20254;-76
2021/12/18 07:58:53;;;;;;;9.43;7.33;;;;;;;9.50;69.59;95210.66;5089904;28;20204;-75
2021/12/18 08:01:20;;;;;;;9.20;7.73;;;;;;;9.35;69.02;95192.22;5090183;28;20182;-82
2021/12/18 08:03:48;;;;;;;10.00;7.03;;;;;;;9.47;68.09;95221.09;5090140;28;20712;-74
2021/12/18 08:06:15;;;;;;;7.63;6.53;;;;;;;9.44;67.75;95226.44;5090653;28;20182;-75
2021/12/18 08:08:42;;;;;;;3.77;3.03;;;;;;;9.63;93.57;95230.94;5089257;28;20242;-75
2021/12/18 08:11:09;;;;;;;8.50;7.03;;;;;;;10.03;91.76;95231.22;5089045;28;20668;-72
2021/12/18 08:13:36;;;;;;;9.40;6.80;;;;;;;10.14;85.16;95222.69;5089107;28;20193;-73
2021/12/18 08:16:05;;;;;;;7.47;6.30;;;;;;;10.22;80.00;95228.00;5089241;28;20232;-73
2021/12/18 08:18:32;;;;;;;12.13;7.20;;;;;;;10.23;76.56;95240.66;5089488;28;20193;-70
2021/12/18 08:20:59;;;;;;;8.70;6.93;;;;;;;10.22;74.09;95239.03;5088631;28;20182;-71
2021/12/18 08:23:26;;;;;;;10.23;7.20;;;;;;;10.17;72.48;95238.59;5088962;28;20228;-72
2021/12/18 08:25:54;;;;;;;9.07;7.20;;;;;;;10.14;71.29;95233.72;5089353;28;20200;-72
2021/12/18 08:28:21;;;;;;;8.40;7.00;;;;;;;10.16;70.21;95242.09;5089060;28;20285;-73
2021/12/18 08:30:48;;;;;;;10.80;8.00;;;;;;;10.21;68.80;95229.75;5090588;28;20186;-74
2021/12/18 08:33:16;;;;;;;11.13;7.07;;;;;;;10.53;66.97;95234.88;5090583;28;20204;-71
2021/12/18 08:35:43;;;;;;;9.17;6.70;;;;;;;10.61;65.69;95226.56;5090890;28;20194;-78
2021/12/18 08:38:09;;;;;;;8.37;7.57;;;;;;;10.78;64.88;95246.47;5089033;28;20186;-78
2021/12/18 08:40:37;;;;;;;11.20;8.13;;;;;;;10.76;64.26;95235.56;5088804;28;20226;-77
2021/12/18 08:43:04;;;;;;;10.43;7.83;;;;;;;10.85;63.55;95246.78;5089078;28;20236;-83
2021/12/18 08:45:31;;;;;;;10.07;7.40;;;;;;;10.86;62.66;95245.84;5091175;28;20658;-82
2021/12/18 08:47:58;;;;;;;9.10;7.57;;;;;;;10.77;62.29;95242.28;5090347;28;20186;-74
2021/12/18 08:50:26;;;;;;;8.63;7.37;;;;;;;10.70;61.97;95238.59;5090741;28;20553;-78
2021/12/18 08:52:53;;;;;;;9.07;7.40;;;;;;;10.79;61.46;95240.44;5091020;28;20189;-77
2021/12/18 08:55:22;;;;;;;13.47;8.37;;;;;;;10.87;61.25;95241.53;5091211;28;20182;-75
2021/12/18 08:57:50;;;;;;;9.07;7.80;;;;;;;10.84;60.83;95229.81;5090697;28;20576;-77
2021/12/18 09:00:19;;;;;;;8.80;7.10;;;;;;;10.93;60.41;95244.41;5091834;28;20216;-76
2021/12/18 09:02:48;;;;;;;9.60;7.83;;;;;;;11.07;59.52;95235.59;5092438;28;20221;-73
2021/12/18 09:05:16;;;;;;;10.40;7.50;;;;;;;11.05;59.22;95224.66;5091514;28;20197;-81
2021/12/18 09:07:44;;;;;;;11.07;8.10;;;;;;;11.19;58.81;95237.13;5090189;28;20229;-77
2021/12/18 09:10:12;;;;;;;10.00;7.57;;;;;;;11.03;58.77;95222.22;5089765;28;20838;-85
2021/12/18 09:12:39;;;;;;;9.43;7.40;;;;;;;11.06;58.37;95241.66;5089903;28;20197;-76
2021/12/18 09:15:07;;;;;;;8.33;6.97;;;;;;;10.99;58.57;95243.09;5091639;28;20193;-79
2021/12/18 09:17:34;;;;;;;13.70;8.53;;;;;;;10.90;58.40;95239.53;5093766;28;20190;-77
2021/12/18 09:20:00;;;;;;;9.67;7.37;;;;;;;10.82;58.35;95233.44;5092828;28;20292;-78
2021/12/18 09:22:27;;;;;;;11.13;7.87;;;;;;;10.75;58.41;95238.22;5090740;28;20221;-83
2021/12/18 09:24:55;;;;;;;11.50;7.63;;;;;;;10.70;58.39;95241.16;5093078;28;20197;-85
2021/12/18 09:27:23;;;;;;;9.60;7.53;;;;;;;10.58;58.33;95218.31;5092804;28;20189;-83
2021/12/18 09:29:50;;;;;;;10.07;6.73;;;;;;;10.70;58.20;95235.22;5089886;28;20633;-81
2021/12/18 09:32:16;;;;;;;9.13;6.80;;;;;;;10.68;58.27;95235.38;5088091;28;20243;-79
2021/12/18 09:34:44;;;;;;;9.00;6.83;;;;;;;10.63;58.13;95229.81;5087623;28;20223;-76
2021/12/18 09:37:11;;;;;;;6.40;5.80;;;;;;;10.41;58.05;95204.38;5089297;28;20192;-76
2021/12/18 09:39:38;;;;;;;8.73;5.97;;;;;;;10.34;58.03;95211.72;5096934;28;20210;-77
2021/12/18 09:42:07;;;;;;;9.37;6.57;;;;;;;10.54;57.87;95244.16;5111953;28;20192;-77
2021/12/18 09:44:35;;;;;;;6.53;5.63;;;;;;;10.50;58.24;95241.97;5111253;28;20185;-75
2021/12/18 09:47:04;;;;;;;6.10;5.30;;;;;;;10.43;57.79;95231.41;5111220;28;20262;-72
2021/12/18 09:49:31;;;;;;;7.67;5.70;;;;;;;10.42;57.70;95232.38;5110989;28;20189;-75
2021/12/18 09:51:59;;;;;;;10.20;5.73;;;;;;;10.38;57.63;95225.88;5111605;28;20660;-76
2021/12/18 09:54:26;;;;;;;8.37;6.23;;;;;;;10.39;57.53;95229.25;5111555;28;20184;-77
2021/12/18 09:56:53;;;;;;;8.20;5.90;;;;;;;10.36;57.44;95230.28;5112120;28;20196;-75
2021/12/18 09:59:22;;;;;;;8.33;5.43;;;;;;;10.32;57.73;95226.38;5113647;28;20254;-72
2021/12/18 10:01:49;;;;;;;10.20;5.67;;;;;;;10.35;57.48;95232.97;5118581;28;20181;-73
2021/12/18 10:04:32;;;;;;;7.30;5.20;;;;;;;10.36;57.35;95226.91;5113531;28;20229;-77
2021/12/18 10:07:00;;;;;;;10.53;6.43;;;;;;;10.37;57.51;95226.00;5110795;28;20699;-78
2021/12/18 10:09:34;;;;;;;10.77;5.80;;;;;;;10.28;57.20;95209.66;5111481;28;20242;-80
2021/12/18 10:12:05;;;;;;;5.87;5.27;;;;;;;10.18;57.12;95194.19;5112444;28;20201;-73
2021/12/18 10:14:37;;;;;;;6.53;5.43;;;;;;;10.37;57.13;95208.91;5112500;28;20208;-74
2021/12/18 10:17:05;;;;;;;8.37;5.87;;;;;;;10.41;57.10;95210.28;5110747;28;20182;-74
2021/12/18 10:19:33;;;;;;;8.93;6.70;;;;;;;10.36;57.18;95204.72;5111243;28;20177;-78
2021/12/18 10:22:02;;;;;;;9.47;7.17;;;;;;;10.38;57.21;95209.72;5111818;28;20193;-77
2021/12/18 10:24:30;;;;;;;9.93;7.10;;;;;;;10.26;57.13;95193.63;5114493;28;20215;-75
2021/12/18 10:26:57;;;;;;;10.83;7.27;;;;;;;10.25;57.35;95204.78;5114791;28;20185;-75
2021/12/18 10:29:27;;;;;;;9.67;6.60;;;;;;;10.08;57.18;95178.00;5112804;28;20192;-71
2021/12/18 10:31:57;;;;;;;9.30;6.40;;;;;;;10.27;57.18;95213.94;5114607;28;20189;-77
2021/12/18 10:34:26;;;;;;;7.27;6.50;;;;;;;10.27;57.19;95213.13;5114444;28;20186;-77
2021/12/18 10:37:15;;;;;;;7.60;6.03;;;;;;;10.35;56.98;95209.97;5113977;28;20200;-77
2021/12/18 10:39:45;;;;;;;8.90;5.63;;;;;;;10.39;56.83;95206.22;5115382;28;20196;-76
2021/12/18 10:42:21;;;;;;;8.10;5.97;;;;;;;10.51;56.75;95202.69;5116037;28;20193;-78
2021/12/18 10:45:19;;;;;;;9.13;5.77;;;;;;;10.58;56.26;95190.19;5115884;28;20648;-74
2021/12/18 10:47:54;;;;;;;7.77;6.13;;;;;;;10.66;56.33;95195.50;5115043;28;20226;-74
2021/12/18 10:50:41;;;;;;;8.13;6.57;;;;;;;10.68;56.29;95183.41;5114326;28;20185;-74
2021/12/18 10:53:11;;;;;;;7.10;6.13;;;;;;;10.65;56.12;95181.91;5114512;28;20189;-79
2021/12/18 10:55:46;;;;;;;6.57;5.80;;;;;;;10.63;56.06;95173.56;5113056;28;20189;-72
2021/12/18 10:58:16;;;;;;;6.70;6.00;;;;;;;10.49;56.05;95151.69;5114842;28;20189;-72
2021/12/18 11:00:57;;;;;;;8.47;6.07;;;;;;;10.61;56.02;95182.28;5115276;28;20189;-74
2021/12/18 11:03:38;;;;;;;6.57;5.60;;;;;;;10.59;55.99;95179.84;5114213;28;20204;-74
2021/12/18 11:06:08;;;;;;;7.70;5.90;;;;;;;10.57;55.92;95181.72;5113858;28;20189;-72
2021/12/18 11:08:38;;;;;;;7.27;5.83;;;;;;;10.55;55.86;95184.41;5113648;28;20225;-73
2021/12/18 11:13:52;;;;;;;7.50;5.80;;;;;;;10.39;55.45;95147.41;5114051;28;20204;-73
2021/12/18 11:16:22;;;;;;;8.87;6.37;;;;;;;10.60;55.51;95168.69;5113533;28;20496;-72
2021/12/18 11:18:50;;;;;;;7.50;5.57;;;;;;;10.63;55.35;95178.66;5113829;28;20200;-74
2021/12/18 11:21:17;;;;;;;6.67;5.97;;;;;;;10.64;55.48;95175.16;5112590;28;20690;-72
2021/12/18 11:23:52;;;;;;;6.70;5.77;;;;;;;10.61;55.02;95184.84;5115599;28;20608;-72
2021/12/18 11:26:20;;;;;;;6.87;5.63;;;;;;;10.58;55.06;95174.84;5113973;28;20590;-72
2021/12/18 11:28:50;;;;;;;7.47;5.30;;;;;;;10.55;55.00;95181.84;5113757;28;20197;-72
2021/12/18 11:31:18;;;;;;;7.13;5.43;;;;;;;10.54;54.64;95166.63;5113450;28;20204;-73
2021/12/18 11:33:45;;;;;;;6.47;4.80;;;;;;;10.53;54.23;95170.09;5113860;28;20193;-74
2021/12/18 11:36:13;;;;;;;7.13;4.80;;;;;;;10.53;54.10;95176.06;5112903;28;20721;-73
2021/12/18 11:38:43;;;;;;;5.57;4.57;;;;;;;10.31;53.90;95140.38;5114876;28;20193;-73
2021/12/18 11:41:14;;;;;;;5.53;3.80;;;;;;;10.41;53.56;95160.91;5115709;28;20193;-76
2021/12/18 11:43:45;;;;;;;5.50;3.70;;;;;;;10.49;53.71;95174.69;5112658;28;20227;-72
2021/12/18 11:46:33;;;;;;;4.47;4.03;;;;;;;10.52;53.45;95171.06;5111152;28;20188;-77
2021/12/18 11:49:01;;;;;;;6.40;4.57;;;;;;;10.53;53.19;95165.00;5113324;28;20663;-78
2021/12/18 11:51:30;;;;;;;5.27;3.37;;;;;;;10.49;53.04;95167.00;5113864;28;20185;-81
2021/12/18 11:53:58;;;;;;;4.90;3.70;;;;;;;10.48;52.91;95170.50;5114321;28;20204;-76
2021/12/18 11:56:27;;;;;;;5.73;4.03;;;;;;;10.50;52.66;95178.06;5113447;28;20196;-75
2021/12/18 11:58:54;;;;;;;4.97;3.10;;;;;;;10.50;52.74;95188.28;5113768;28;20189;-81
2021/12/18 12:01:25;;;;;;;3.63;3.30;;;;;;;10.48;52.82;95187.56;5112756;28;20178;-81
2021/12/18 12:03:57;;;;;;;4.53;3.27;;;;;;;10.47;52.58;95184.22;5112655;28;20216;-75
2021/12/18 12:06:30;;;;;;;3.37;3.07;;;;;;;10.44;52.52;95170.88;5112125;28;20181;-74
2021/12/18 12:09:23;;;;;;;4.63;3.53;;;;;;;10.45;52.62;95187.84;5112813;28;20189;-74
2021/12/18 12:11:53;;;;;;;6.17;3.73;;;;;;;10.37;52.46;95180.78;5111877;28;20280;-72
2021/12/18 12:14:21;;;;;;;4.00;3.60;;;;;;;10.40;52.65;95189.94;5112413;28;20185;-75
2021/12/18 12:17:14;;;;;;;5.30;4.07;;;;;;;10.14;52.87;95167.25;5113221;28;20192;-80